• Join FlightAware (Why Join?)
  • Login
  • US Flag GB Flag 
05:28 EDT


 

Airport Tracker/Info


-or-


 

Live Flight TrackerFlight Track Log ✈ LNI33 ✈ 03-Nov-2013 ✈ WADD / DPS - WIII / CGK

Flight Track Log - Related Links

Times and Time Zones

All times are in EST time to prevent confusion due to time zone crossing. See the LNI33 flight status page for this flight to view local times or setup timezone preferences in your user account.

Time Position Orientation Groundspeed Altitude Reporting Facility
EST Latitude Longitude Course Direction KTS MPH feet Rate Location/Type
09:23 -8.7490 115.1610 180° South 105 121  Level FlightAware
09:24 -8.7480 115.1840 87° East 177 204 500 1,560 Climbing FlightAware
09:24 -8.7450 115.2200 85° East 193 222 1,900 1,740 Climbing FlightAware
09:25 -8.7430 115.2690 88° East 256 295 3,100 2,280 Climbing FlightAware
09:26 -8.7410 115.3260 88° East 266 306 5,400 3,120 Climbing FlightAware
09:27 -8.7400 115.3630 88° East 264 304 7,100 3,060 Climbing FlightAware
09:27 -8.7360 115.3990 84° East 268 308 8,500 2,760 Climbing FlightAware
09:28 -8.7110 115.4290 50° Northeast 284 327 9,900 1,920 Climbing FlightAware
09:28 -8.6520 115.4220 353° North 341 392 10,900 1,440 Climbing FlightAware
09:29 -8.6090 115.3670 308° West 379 436 12,000 2,040 Climbing FlightAware
09:30 -8.5740 115.2910 295° West 385 443 13,900 2,400 Climbing FlightAware
09:30 -8.5440 115.2290 296° West 389 448 15,400 2,160 Climbing FlightAware
09:31 -8.5130 115.1630 295° West 398 458 16,700 1,920 Climbing FlightAware
09:32 -8.4900 115.1150 296° West 403 464 17,600 1,920 Climbing FlightAware
09:32 -8.4530 115.0360 295° West 413 475 19,100 1,860 Climbing FlightAware
09:33 -8.4200 114.9670 296° West 420 483 20,300 1,740 Climbing FlightAware
09:34 -8.3880 114.8980 295° West 426 490 21,400 1,560 Climbing FlightAware
09:34 -8.3520 114.8230 296° West 435 501 22,400 1,440 Climbing FlightAware
09:35 -8.3170 114.7480 295° West 441 507 23,400 1,440 Climbing FlightAware
09:36 -8.2830 114.6760 296° West 448 516 24,300 1,380 Climbing FlightAware
09:36 -8.2320 114.5750 297° West 453 521 25,600 1,380 Climbing FlightAware
09:37 -8.1950 114.5080 299° West 456 525 26,400 1,200 Climbing FlightAware
09:38 -8.1670 114.4580 299° West 461 531 26,900 360 Climbing FlightAware
09:38 -8.1220 114.3760 299° West 461 531 26,900  Level FlightAware
09:39 -8.0900 114.3180 299° West 461 531 26,900  Level FlightAware
09:40 -8.0580 114.2590 299° West 461 531 26,900  Level FlightAware
09:40 -8.0150 114.1810 299° West 461 531 26,900  Level FlightAware
09:41 -7.9840 114.1250 299° West 461 531 26,900  Level FlightAware
09:41 -7.9630 114.0860 299° West 461 531 26,900 3,060 Level FlightAware
09:43 -7.8160 113.8240 300° West 470 541 33,200 3,120 Climbing FlightAware
09:44 -7.7720 113.7440 299° West 461 531 34,200 1,260 Climbing FlightAware
09:44 -7.7250 113.6590 299° West 458 527 35,000 960 Climbing FlightAware
09:46 -7.6600 113.5410 299° West 453 521 36,000 480 Climbing FlightAware
09:46 -7.6130 113.4300 293° West 459 528 36,000  Level FlightAware
09:47 -7.5790 113.3510 293° West 459 528 36,000  Level FlightAware
09:48 -7.5550 113.2930 293° West 459 528 36,000  Level FlightAware
09:48 -7.5210 113.2140 293° West 459 528 36,000  Level FlightAware
09:49 -7.4960 113.1560 293° West 460 529 36,000  Level FlightAware
09:49 -7.4620 113.0760 293° West 460 529 36,000  Level FlightAware
09:50 -7.4280 112.9980 294° West 459 528 36,000  Level FlightAware
09:51 -7.3910 112.9120 293° West 459 528 36,000  Level FlightAware
09:52 -7.3530 112.8220 293° West 460 529 36,000  Level FlightAware
09:52 -7.3280 112.7640 293° West 460 529 36,000  Level FlightAware
09:53 -7.2690 112.6260 293° West 461 531 36,000  Level FlightAware
09:54 -7.2380 112.5560 294° West 460 529 36,000  Level FlightAware
09:55 -7.2050 112.4780 293° West 462 532 36,000  Level FlightAware
09:55 -7.1800 112.4190 293° West 462 532 36,000  Level FlightAware
09:56 -7.1500 112.3490 293° West 462 532 36,000  Level FlightAware
09:56 -7.1160 112.2700 293° West 463 533 36,000  Level FlightAware
09:57 -7.0860 112.2020 294° West 464 534 36,000  Level FlightAware
09:58 -7.0540 112.1270 293° West 465 535 36,000  Level FlightAware
09:58 -7.0270 112.0640 293° West 465 535 36,000  Level FlightAware
09:59 -6.9970 111.9950 294° West 465 535 36,000  Level FlightAware
09:59 -6.9580 111.9050 294° West 465 535 36,000  Level FlightAware
10:00 -6.9290 111.8370 293° West 464 534 36,000  Level FlightAware
10:01 -6.8940 111.7560 294° West 464 534 36,000  Level FlightAware
10:02 -6.8430 111.6380 294° West 463 533 36,000  Level FlightAware
10:02 -6.8090 111.5590 293° West 462 532 36,000  Level FlightAware
10:03 -6.7710 111.4720 294° West 461 531 36,000  Level FlightAware
10:03 -6.7540 111.4330 294° West 461 531 36,000  Level FlightAware
10:04 -6.7170 111.3490 294° West 461 531 36,000  Level FlightAware
10:05 -6.6910 111.2890 294° West 461 531 36,000  Level FlightAware
10:05 -6.6640 111.2290 294° West 461 531 36,000  Level FlightAware
10:06 -6.6380 111.1690 294° West 461 531 36,000  Level FlightAware
10:07 -6.6110 111.1090 294° West 461 531 36,000  Level FlightAware
10:07 -6.5840 111.0490 294° West 461 531 36,000  Level FlightAware
10:08 -6.5500 110.9710 294° West 461 531 36,000  Level FlightAware
10:09 -6.4970 110.8510 294° West 461 531 36,000  Level FlightAware
10:10 -6.4700 110.7910 294° West 461 531 36,000  Level FlightAware
10:10 -6.4450 110.7340 294° West 461 531 36,000  Level FlightAware
10:11 -6.4270 110.6940 294° West 461 531 36,000  Level FlightAware
10:12 -6.3880 110.6060 294° West 461 531 36,000  Level FlightAware
10:12 -6.3630 110.5490 294° West 461 531 36,000  Level FlightAware
10:13 -6.3350 110.4860 294° West 461 531 36,000  Level FlightAware
10:13 -6.3170 110.4440 293° West 461 531 36,000 -180 Level FlightAware
10:16 -6.3072 110.2353 273° West  Level Estimated
10:17 -6.3027 110.1419 273° West  Level Estimated
10:18 -6.2983 110.0484 273° West  Level Estimated
10:19 -6.2938 109.9550 273° West  Level Estimated
10:20 -6.2893 109.8615 273° West  Level Estimated
10:21 -6.2848 109.7681 273° West  Level Estimated
10:22 -6.2803 109.6747 273° West  Level Estimated
10:23 -6.2758 109.5812 273° West  Level Estimated
10:24 -6.2712 109.4878 273° West  Level Estimated
10:25 -6.2667 109.3943 273° West  Level Estimated
10:26 -6.2621 109.3009 273° West  Level Estimated
10:26 -6.0930 108.7070 273° West 450 518 33,900  Level FlightAware
10:26 -6.0860 108.6290 275° West 455 524 32,500 -2,220 Descending FlightAware
10:27 -6.0780 108.5520 276° West 450 518 31,200 -2,220 Descending FlightAware
10:28 -6.0690 108.4540 275° West 441 507 29,400 -2,160 Descending FlightAware
10:28 -6.0620 108.3810 276° West 435 501 28,200 -2,040 Descending FlightAware
10:29 -6.0540 108.2940 275° West 426 490 26,700 -2,100 Descending FlightAware
10:29 -6.0480 108.2420 277° West 421 484 25,700 -1,440 Descending FlightAware
10:30 -6.0240 108.1960 298° West 395 455 25,400 -960 Descending FlightAware
10:31 -5.9880 108.1350 301° West 395 455 24,700 -1,320 Descending FlightAware
10:31 -5.9520 108.0720 300° West 362 417 23,700 -1,440 Descending FlightAware
10:32 -5.9210 108.0200 301° West 359 413 22,800 -1,680 Descending FlightAware
10:32 -5.8890 107.9640 300° West 357 411 21,600 -1,920 Descending FlightAware
10:33 -5.8560 107.9050 299° West 356 410 20,400 -1,560 Descending FlightAware
10:34 -5.8280 107.8550 299° West 343 395 19,600 -1,500 Descending FlightAware
10:35 -5.7950 107.7920 298° West 342 394 18,400 -1,680 Descending FlightAware
10:35 -5.8070 107.7360 258° West 334 384 17,400 -1,020 Descending FlightAware
10:36 -5.8420 107.6450 249° West 301 346 16,700 -960 Descending FlightAware
10:37 -5.8620 107.5870 251° West 294 338 15,700 -1,440 Descending FlightAware
10:39 -5.9120 107.4380 251° West 283 326 12,900 -1,500 Descending FlightAware
10:40 -5.9220 107.3670 262° West 281 323 11,500 -1,440 Descending FlightAware
10:41 -5.9370 107.2620 262° West 274 315 9,700 -1,380 Descending FlightAware
10:42 -5.9450 107.2110 261° West 272 313 8,800 -1,380 Descending FlightAware
10:42 -5.9510 107.1690 262° West 273 314 8,000 -1,320 Descending FlightAware
10:43 -5.9590 107.1190 261° West 271 312 7,200 -1,200 Descending FlightAware
10:44 -5.9690 107.0750 257° West 263 303 6,500 -1,320 Descending FlightAware
10:45 -5.9960 107.0130 246° West 273 314 5,300 -1,080 Descending FlightAware
10:46 -6.0350 106.9140 248° West 250 288 4,000 -780 Descending FlightAware
10:47 -6.0590 106.8540 248° West 209 241 3,500 -600 Descending FlightAware
10:48 -6.0720 106.8210 248° West 186 214 3,000 -840 Descending FlightAware
10:49 -6.0860 106.7850 249° West 155 178 2,300 -900 Descending FlightAware
10:49 -6.0960 106.7600 248° West 153 176 1,800 -780 Descending FlightAware
10:50 -6.1050 106.7370 249° West 150 173 1,400 -720 Descending FlightAware
10:50 -6.1160 106.7110 247° West 149 171 900 -780 Descending FlightAware
10:51 -6.1230 106.6910 251° West 143 165 500 -780 Descending FlightAware
10:51 -6.1290 106.6780 245° Southwest 146 168 200 -360 Descending FlightAware
10:52 -6.1350 106.6630 248° West 146 168 200  Level FlightAware
10:55 -6.1256 106.6559 323° Northwest  Level Estimated
10:56 -6.1256 106.6559 315° West  Level Estimated
10:57 -6.1256 106.6559 315° West  Level Estimated
10:58 -6.1256 106.6559 315° West  Level Estimated
10:59 -6.1256 106.6559 315° West  Level Estimated
11:00 -6.1256 106.6559 315° West  Level Estimated
11:01 -6.1256 106.6559 315° West  Level Estimated
11:02 -6.1256 106.6559 315° West  Level Estimated
11:03 -6.1256 106.6559 315° West  Level Estimated
11:04 -6.1256 106.6559 315° West  Level Estimated
11:05 -6.1256 106.6559 315° West  Level Estimated
11:06 -6.1256 106.6559 315° West  Level Estimated
11:07 -6.1256 106.6559 315° West  Level Estimated
11:08 -6.1256 106.6559 315° West  Level Estimated
11:09 -6.1256 106.6559 315° West  Level Estimated
11:10 -6.1256 106.6559 315° West  Level Estimated
11:11 -6.1256 106.6559 315° West  Level Estimated
11:12 -6.1256 106.6559 315° West  Level Estimated
11:13 -6.1256 106.6559 315° West  Level Estimated
11:14 -6.1256 106.6559 315° West  Level Estimated